Time;durP1;ratioP1;P1;durP2;ratioP2;P2;SDS_P1;SDS_P2;PMS_P1;PMS_P2;Temp;Humidity;BMP_temperature;BMP_pressure;BME280_temperature;BME280_humidity;BME280_pressure;Samples;Min_cycle;Max_cycle;Signal;HPM_P1;HPM_P2
2024/01/21 00:00:17;;;;;;;857.15;83.15;;;;;;;;;;4757392;29;20041;-80
2024/01/21 00:02:44;;;;;;;849.13;82.47;;;;;;;;;;4753167;29;20112;-83
2024/01/21 00:05:12;;;;;;;836.97;80.90;;;;;;;;;;4756283;29;20150;-80
2024/01/21 00:07:38;;;;;;;883.75;87.07;;;;;;;;;;4758446;29;20052;-80
2024/01/21 00:10:07;;;;;;;818.42;79.90;;;;;;;;;;4753291;29;20084;-80
2024/01/21 00:12:33;;;;;;;823.45;79.28;;;;;;;;;;4761255;29;20049;-80
2024/01/21 00:15:00;;;;;;;817.55;78.53;;;;;;;;;;4738944;29;20041;-80
2024/01/21 00:17:27;;;;;;;829.78;80.07;;;;;;;;;;4755520;29;21224;-80
2024/01/21 00:19:55;;;;;;;838.53;80.95;;;;;;;;;;4757483;29;20052;-81
2024/01/21 00:22:22;;;;;;;852.15;82.90;;;;;;;;;;4754566;29;21357;-81
2024/01/21 00:24:49;;;;;;;840.90;81.93;;;;;;;;;;4742828;29;20836;-81
2024/01/21 00:27:15;;;;;;;845.63;81.90;;;;;;;;;;4753211;29;20126;-80
2024/01/21 00:29:42;;;;;;;880.67;87.50;;;;;;;;;;4742215;29;20053;-80
2024/01/21 00:32:10;;;;;;;857.03;84.30;;;;;;;;;;4749442;29;20152;-80
2024/01/21 00:34:37;;;;;;;845.20;83.30;;;;;;;;;;4755013;29;21231;-80
2024/01/21 00:37:04;;;;;;;851.33;83.55;;;;;;;;;;4756290;29;20046;-80
2024/01/21 00:39:33;;;;;;;854.35;83.85;;;;;;;;;;4751097;29;20045;-79
2024/01/21 00:42:00;;;;;;;856.55;84.20;;;;;;;;;;4758622;29;20051;-82
2024/01/21 00:44:34;;;;;;;858.35;84.68;;;;;;;;;;4750016;29;20061;-79
2024/01/21 00:47:02;;;;;;;872.85;86.32;;;;;;;;;;4757047;29;20041;-80
2024/01/21 00:49:30;;;;;;;862.80;85.88;;;;;;;;;;4753057;29;20045;-81
2024/01/21 00:51:57;;;;;;;852.20;84.25;;;;;;;;;;4753807;29;20045;-80
2024/01/21 00:54:25;;;;;;;870.00;85.80;;;;;;;;;;4755797;29;21088;-79
2024/01/21 00:56:51;;;;;;;852.70;85.40;;;;;;;;;;4751233;29;21104;-80
2024/01/21 00:59:18;;;;;;;849.17;83.97;;;;;;;;;;4757689;29;20049;-79
2024/01/21 01:01:45;;;;;;;854.25;84.80;;;;;;;;;;4749987;29;20226;-79
2024/01/21 01:04:11;;;;;;;890.67;89.55;;;;;;;;;;4753259;29;20421;-80
2024/01/21 01:06:38;;;;;;;865.97;85.82;;;;;;;;;;4753746;29;21072;-79
2024/01/21 01:09:07;;;;;;;860.25;85.50;;;;;;;;;;4751448;29;20045;-80
2024/01/21 01:11:34;;;;;;;877.38;87.38;;;;;;;;;;4756044;29;20964;-81
2024/01/21 01:14:00;;;;;;;861.88;86.20;;;;;;;;;;4741849;29;20973;-79
2024/01/21 01:16:27;;;;;;;867.17;86.07;;;;;;;;;;4743321;29;20946;-79
2024/01/21 01:18:53;;;;;;;870.30;86.45;;;;;;;;;;4758302;29;20964;-80
2024/01/21 01:21:20;;;;;;;859.03;85.18;;;;;;;;;;4752821;29;21066;-80
2024/01/21 01:23:47;;;;;;;859.53;84.05;;;;;;;;;;4752527;29;20783;-80
2024/01/21 01:26:13;;;;;;;868.33;85.40;;;;;;;;;;4749312;29;20316;-80
2024/01/21 01:28:40;;;;;;;884.72;86.60;;;;;;;;;;4757878;29;20053;-80
2024/01/21 01:31:09;;;;;;;864.25;84.82;;;;;;;;;;4747562;29;20032;-80
2024/01/21 01:33:36;;;;;;;889.03;87.78;;;;;;;;;;4753614;29;20055;-79
2024/01/21 01:39:50;;;;;;;858.40;83.95;;;;;;;;;;4744462;29;20032;-81
2024/01/21 01:42:17;;;;;;;848.83;83.88;;;;;;;;;;4749188;29;20042;-81
2024/01/21 01:44:44;;;;;;;873.97;86.20;;;;;;;;;;4751562;29;20049;-80
2024/01/21 01:47:10;;;;;;;864.55;86.20;;;;;;;;;;4747744;29;20046;-79
2024/01/21 01:49:39;;;;;;;894.80;89.45;;;;;;;;;;4752995;29;20056;-81
2024/01/21 01:52:05;;;;;;;881.33;86.63;;;;;;;;;;4747561;29;20065;-80
2024/01/21 01:54:33;;;;;;;873.50;86.43;;;;;;;;;;4749367;29;20898;-80
2024/01/21 01:57:03;;;;;;;860.58;84.10;;;;;;;;;;4736129;29;21013;-81
2024/01/21 01:59:31;;;;;;;857.85;84.53;;;;;;;;;;4749617;29;20041;-80
2024/01/21 02:01:58;;;;;;;858.65;86.57;;;;;;;;;;4819569;23;22509;-83
2024/01/21 02:04:25;;;;;;;849.70;84.50;;;;;;;;;;4776863;29;20044;-83
2024/01/21 02:06:52;;;;;;;928.88;93.80;;;;;;;;;;4785361;29;20986;-82
2024/01/21 02:09:19;;;;;;;887.90;89.28;;;;;;;;;;4782468;29;21025;-82
2024/01/21 02:11:45;;;;;;;933.78;94.93;;;;;;;;;;4772021;29;21135;-83
2024/01/21 02:14:12;;;;;;;925.25;93.13;;;;;;;;;;4784746;29;20044;-82
2024/01/21 02:16:39;;;;;;;867.00;86.82;;;;;;;;;;4781424;29;21071;-83
2024/01/21 02:19:09;;;;;;;837.28;83.05;;;;;;;;;;4787411;29;20043;-81
2024/01/21 02:21:36;;;;;;;873.05;87.40;;;;;;;;;;4780168;29;20041;-81
2024/01/21 02:24:04;;;;;;;820.42;81.28;;;;;;;;;;4782040;29;20043;-82
2024/01/21 02:26:30;;;;;;;802.42;79.32;;;;;;;;;;4784467;29;20129;-83
2024/01/21 02:28:57;;;;;;;968.42;99.32;;;;;;;;;;4778973;29;20045;-81
2024/01/21 02:31:25;;;;;;;849.63;85.45;;;;;;;;;;4795862;29;20127;-81
2024/01/21 02:33:51;;;;;;;897.50;91.47;;;;;;;;;;4792320;29;20059;-81
2024/01/21 02:36:18;;;;;;;901.30;91.40;;;;;;;;;;4789539;29;20182;-81
2024/01/21 02:38:45;;;;;;;859.63;86.78;;;;;;;;;;4789877;29;20040;-82
2024/01/21 02:41:11;;;;;;;803.88;79.55;;;;;;;;;;4788826;29;21122;-81
2024/01/21 02:43:38;;;;;;;856.60;86.30;;;;;;;;;;4792463;29;20112;-81
2024/01/21 02:46:04;;;;;;;822.20;82.03;;;;;;;;;;4787190;29;20041;-81
2024/01/21 02:48:31;;;;;;;835.17;84.47;;;;;;;;;;4786903;29;20214;-81
2024/01/21 02:50:58;;;;;;;968.60;100.75;;;;;;;;;;4778356;29;20039;-83
2024/01/21 02:53:24;;;;;;;891.75;91.95;;;;;;;;;;4784596;29;20940;-83
2024/01/21 02:55:51;;;;;;;872.85;89.35;;;;;;;;;;4785160;29;20092;-83
2024/01/21 02:58:17;;;;;;;961.58;102.55;;;;;;;;;;4778964;29;20105;-83
2024/01/21 03:00:44;;;;;;;884.97;91.00;;;;;;;;;;4788570;29;20040;-83
2024/01/21 03:03:11;;;;;;;821.72;83.53;;;;;;;;;;4786674;29;20120;-84
2024/01/21 03:05:38;;;;;;;855.72;87.28;;;;;;;;;;4791239;29;21267;-82
2024/01/21 03:08:05;;;;;;;905.88;93.38;;;;;;;;;;4785618;29;21050;-82
2024/01/21 03:10:32;;;;;;;870.60;88.88;;;;;;;;;;4785849;29;20879;-82
2024/01/21 03:13:00;;;;;;;936.47;98.22;;;;;;;;;;4788822;29;20056;-82
2024/01/21 03:15:27;;;;;;;882.67;91.50;;;;;;;;;;4784711;29;20533;-81
2024/01/21 03:17:53;;;;;;;923.28;96.15;;;;;;;;;;4789801;29;20229;-82
2024/01/21 03:20:20;;;;;;;904.58;94.43;;;;;;;;;;4783397;29;20040;-81
2024/01/21 03:22:46;;;;;;;964.58;100.63;;;;;;;;;;4782451;29;21007;-82
2024/01/21 03:25:13;;;;;;;868.70;89.75;;;;;;;;;;4784650;29;20048;-81
2024/01/21 03:27:39;;;;;;;907.95;93.25;;;;;;;;;;4787188;29;20143;-84
2024/01/21 03:30:06;;;;;;;887.63;91.22;;;;;;;;;;4789800;29;20046;-81
2024/01/21 03:32:34;;;;;;;860.22;87.07;;;;;;;;;;4772599;29;20067;-81
2024/01/21 03:35:01;;;;;;;926.85;95.18;;;;;;;;;;4783599;29;20045;-82
2024/01/21 03:37:28;;;;;;;879.35;89.97;;;;;;;;;;4783792;29;20055;-82
2024/01/21 03:39:54;;;;;;;907.72;92.97;;;;;;;;;;4786024;29;21023;-81
2024/01/21 03:42:22;;;;;;;862.28;89.57;;;;;;;;;;4792372;29;20060;-81
2024/01/21 03:44:49;;;;;;;916.88;95.20;;;;;;;;;;4795494;29;20055;-83
2024/01/21 03:47:16;;;;;;;855.67;86.63;;;;;;;;;;4812581;29;20044;-83
2024/01/21 03:49:43;;;;;;;933.28;97.15;;;;;;;;;;4804683;29;20052;-83
2024/01/21 03:52:09;;;;;;;836.00;84.90;;;;;;;;;;4810556;29;20922;-83
2024/01/21 03:54:36;;;;;;;790.75;79.43;;;;;;;;;;4802947;29;20052;-83
2024/01/21 03:57:03;;;;;;;810.42;82.15;;;;;;;;;;4797382;29;20041;-83
2024/01/21 03:59:29;;;;;;;796.17;79.28;;;;;;;;;;4803185;29;20261;-83
2024/01/21 04:01:56;;;;;;;793.60;79.25;;;;;;;;;;4798093;29;20836;-83
2024/01/21 04:04:22;;;;;;;793.00;79.47;;;;;;;;;;4804542;29;20059;-83
2024/01/21 04:06:49;;;;;;;822.90;82.32;;;;;;;;;;4794329;29;20072;-83
2024/01/21 04:09:22;;;;;;;784.85;78.72;;;;;;;;;;4801813;29;20212;-83
2024/01/21 04:11:49;;;;;;;799.08;79.35;;;;;;;;;;4797140;29;20045;-82
2024/01/21 04:14:16;;;;;;;841.03;85.75;;;;;;;;;;4795112;29;20212;-82
2024/01/21 04:16:43;;;;;;;756.88;75.63;;;;;;;;;;4804513;29;20140;-82
2024/01/21 04:19:09;;;;;;;748.30;76.47;;;;;;;;;;4795154;29;20048;-82
2024/01/21 04:21:36;;;;;;;775.90;78.45;;;;;;;;;;4800523;29;20063;-82
2024/01/21 04:24:03;;;;;;;778.80;81.82;;;;;;;;;;4795614;29;20104;-82
2024/01/21 04:26:32;;;;;;;747.13;75.70;;;;;;;;;;4783876;29;20903;-82
2024/01/21 04:28:59;;;;;;;807.63;83.63;;;;;;;;;;4801922;29;20124;-82
2024/01/21 04:31:25;;;;;;;829.08;85.47;;;;;;;;;;4792203;29;20578;-82
2024/01/21 04:33:52;;;;;;;845.85;88.47;;;;;;;;;;4798366;29;20059;-82
2024/01/21 04:36:19;;;;;;;867.05;90.65;;;;;;;;;;4792333;29;20052;-82
2024/01/21 04:38:45;;;;;;;835.35;87.90;;;;;;;;;;4793814;29;20051;-82
2024/01/21 04:41:13;;;;;;;817.75;84.95;;;;;;;;;;4794261;29;21178;-82
2024/01/21 04:43:39;;;;;;;911.20;95.90;;;;;;;;;;4788618;29;21003;-82
2024/01/21 04:46:06;;;;;;;846.83;90.43;;;;;;;;;;4792925;29;20289;-82
2024/01/21 04:48:34;;;;;;;828.22;85.90;;;;;;;;;;4785909;29;20092;-82
2024/01/21 04:51:01;;;;;;;937.60;101.43;;;;;;;;;;4786871;29;20040;-82
2024/01/21 04:53:28;;;;;;;910.90;98.22;;;;;;;;;;4783202;29;20040;-82
2024/01/21 04:55:56;;;;;;;951.80;104.45;;;;;;;;;;4783944;29;20036;-82
2024/01/21 04:58:23;;;;;;;909.30;98.72;;;;;;;;;;4788662;29;20143;-82
2024/01/21 05:00:50;;;;;;;988.15;108.53;;;;;;;;;;4785172;29;20051;-82
2024/01/21 05:03:17;;;;;;;903.92;101.68;;;;;;;;;;4789410;29;20181;-83
2024/01/21 05:05:44;;;;;;;960.95;107.68;;;;;;;;;;4778593;29;20041;-83
2024/01/21 05:08:10;;;;;;;879.75;95.68;;;;;;;;;;4786270;29;21027;-83
2024/01/21 05:10:37;;;;;;;845.92;89.75;;;;;;;;;;4798727;29;20723;-83
2024/01/21 05:13:03;;;;;;;860.75;90.07;;;;;;;;;;4788401;29;20315;-82
2024/01/21 05:15:30;;;;;;;1011.63;115.07;;;;;;;;;;4798579;29;20045;-82
2024/01/21 05:17:57;;;;;;;871.70;96.32;;;;;;;;;;4782014;29;20138;-82
2024/01/21 05:20:26;;;;;;;902.97;99.78;;;;;;;;;;4797931;29;20050;-83
2024/01/21 05:22:54;;;;;;;916.63;104.35;;;;;;;;;;4787562;29;21166;-83
2024/01/21 05:25:21;;;;;;;808.47;90.35;;;;;;;;;;4793111;29;20040;-82
2024/01/21 05:27:47;;;;;;;889.83;102.25;;;;;;;;;;4791580;29;20053;-82
2024/01/21 05:30:16;;;;;;;876.42;97.25;;;;;;;;;;4787798;29;20040;-82
2024/01/21 05:32:46;;;;;;;848.70;92.47;;;;;;;;;;4793960;29;20052;-82
2024/01/21 05:35:13;;;;;;;864.38;93.22;;;;;;;;;;4783537;29;20984;-82
2024/01/21 05:37:40;;;;;;;921.63;97.95;;;;;;;;;;4785959;29;20047;-84
2024/01/21 05:40:06;;;;;;;916.60;97.63;;;;;;;;;;4781967;29;20041;-82
2024/01/21 05:42:33;;;;;;;875.17;93.10;;;;;;;;;;4787261;29;20048;-83
2024/01/21 05:45:00;;;;;;;937.97;99.20;;;;;;;;;;4785802;29;20053;-81
2024/01/21 05:47:26;;;;;;;859.83;89.90;;;;;;;;;;4780993;29;20044;-81
2024/01/21 05:49:53;;;;;;;901.47;95.10;;;;;;;;;;4788331;29;20032;-81
2024/01/21 05:52:20;;;;;;;921.67;96.82;;;;;;;;;;4780393;29;20850;-83
2024/01/21 05:54:46;;;;;;;919.80;94.80;;;;;;;;;;4794341;29;20980;-83
2024/01/21 05:57:13;;;;;;;884.33;92.22;;;;;;;;;;4782692;29;20037;-83
2024/01/21 05:59:39;;;;;;;912.60;99.70;;;;;;;;;;4783896;29;20348;-83
2024/01/21 06:02:10;;;;;;;897.15;96.15;;;;;;;;;;4786683;29;20181;-83
2024/01/21 06:04:39;;;;;;;858.80;91.40;;;;;;;;;;4781286;29;20040;-83
2024/01/21 06:07:07;;;;;;;885.55;96.32;;;;;;;;;;4785576;29;20151;-83
2024/01/21 06:09:34;;;;;;;916.95;99.10;;;;;;;;;;4782764;29;20084;-83
2024/01/21 06:12:00;;;;;;;951.78;104.75;;;;;;;;;;4780581;29;20101;-83
2024/01/21 06:14:27;;;;;;;917.72;96.60;;;;;;;;;;4786573;29;20044;-82
2024/01/21 06:16:55;;;;;;;1016.72;112.35;;;;;;;;;;4780552;29;20112;-82
2024/01/21 06:19:22;;;;;;;898.33;95.78;;;;;;;;;;4788133;29;20051;-82
2024/01/21 06:21:48;;;;;;;923.72;97.57;;;;;;;;;;4781626;29;20064;-82
2024/01/21 06:24:17;;;;;;;932.47;106.68;;;;;;;;;;4781772;29;20988;-82
2024/01/21 06:26:44;;;;;;;929.67;108.30;;;;;;;;;;4780978;29;21224;-82
2024/01/21 06:29:12;;;;;;;918.58;117.72;;;;;;;;;;4784402;29;20060;-82
2024/01/21 06:31:40;;;;;;;1003.00;131.38;;;;;;;;;;4786230;29;20060;-82
2024/01/21 06:34:06;;;;;;;933.30;110.88;;;;;;;;;;4781285;29;20114;-82
2024/01/21 06:36:33;;;;;;;956.42;114.97;;;;;;;;;;4790414;29;20095;-82
2024/01/21 06:39:01;;;;;;;989.15;119.68;;;;;;;;;;4779036;29;20068;-82
2024/01/21 06:41:28;;;;;;;990.78;123.38;;;;;;;;;;4787074;29;20040;-83
2024/01/21 06:43:55;;;;;;;986.97;123.32;;;;;;;;;;4783787;29;20036;-82
2024/01/21 06:46:21;;;;;;;1025.28;121.57;;;;;;;;;;4784197;29;20084;-83
2024/01/21 06:48:48;;;;;;;959.92;122.15;;;;;;;;;;4790439;29;20617;-82
2024/01/21 06:51:31;;;;;;;900.25;115.35;;;;;;;;;;4783208;29;20044;-83
2024/01/21 06:53:59;;;;;;;924.47;108.30;;;;;;;;;;4787325;29;20032;-83
2024/01/21 06:56:27;;;;;;;902.25;106.97;;;;;;;;;;4777968;29;20089;-83
2024/01/21 06:58:53;;;;;;;952.65;115.03;;;;;;;;;;4785842;29;20268;-82
2024/01/21 07:01:20;;;;;;;904.40;107.47;;;;;;;;;;4786874;29;20071;-82
2024/01/21 07:03:47;;;;;;;938.67;111.18;;;;;;;;;;4783432;29;20900;-83
2024/01/21 07:06:13;;;;;;;920.28;108.05;;;;;;;;;;4788907;29;20024;-83
2024/01/21 07:08:40;;;;;;;904.75;108.65;;;;;;;;;;4783098;29;20064;-83
2024/01/21 07:11:07;;;;;;;894.80;104.88;;;;;;;;;;4784145;29;20919;-82
2024/01/21 07:13:34;;;;;;;966.28;111.72;;;;;;;;;;4762841;29;20059;-83
2024/01/21 07:16:01;;;;;;;917.65;107.60;;;;;;;;;;4782032;29;21162;-83
2024/01/21 07:18:29;;;;;;;943.33;109.43;;;;;;;;;;4788329;29;20057;-83
2024/01/21 07:20:56;;;;;;;953.72;115.18;;;;;;;;;;4779948;29;21084;-83
2024/01/21 07:23:22;;;;;;;944.90;111.80;;;;;;;;;;4789293;29;20822;-83
2024/01/21 07:25:49;;;;;;;908.72;104.97;;;;;;;;;;4780588;29;21009;-82
2024/01/21 07:28:16;;;;;;;951.92;108.18;;;;;;;;;;4785970;29;20041;-81
2024/01/21 07:30:43;;;;;;;884.80;99.82;;;;;;;;;;4790158;29;20055;-81
2024/01/21 07:33:10;;;;;;;857.40;96.30;;;;;;;;;;4783286;29;20049;-83
2024/01/21 07:35:38;;;;;;;876.15;100.32;;;;;;;;;;4790962;29;20041;-82
2024/01/21 07:38:05;;;;;;;889.10;100.75;;;;;;;;;;4791221;29;20103;-82
2024/01/21 07:40:32;;;;;;;836.25;95.00;;;;;;;;;;4795736;29;20124;-82
2024/01/21 07:42:58;;;;;;;880.92;99.32;;;;;;;;;;4795714;29;20103;-81
2024/01/21 07:45:25;;;;;;;898.53;101.22;;;;;;;;;;4796553;29;20046;-80
2024/01/21 07:47:56;;;;;;;819.78;92.40;;;;;;;;;;4804554;29;20062;-81
2024/01/21 07:50:22;;;;;;;866.22;95.22;;;;;;;;;;4796327;29;20056;-82
2024/01/21 07:52:49;;;;;;;789.17;99.30;;;;;;;;;;4830622;29;20413;-81
2024/01/21 07:55:17;;;;;;;818.58;120.07;;;;;;;;;;4810518;29;20040;-82
2024/01/21 07:57:44;;;;;;;736.17;80.72;;;;;;;;;;4814914;29;20044;-82
2024/01/21 08:00:11;;;;;;;567.70;59.35;;;;;;;;;;4819980;29;20044;-83
2024/01/21 08:02:38;;;;;;;683.63;70.95;;;;;;;;;;4821849;29;20048;-80
2024/01/21 08:05:05;;;;;;;770.50;85.10;;;;;;;;;;4814130;29;20045;-79
2024/01/21 08:07:31;;;;;;;867.55;94.47;;;;;;;;;;4791811;29;20044;-81
2024/01/21 08:09:58;;;;;;;869.65;93.72;;;;;;;;;;4799320;29;20150;-80
2024/01/21 08:12:25;;;;;;;821.28;87.03;;;;;;;;;;4792014;29;20067;-80
2024/01/21 08:14:53;;;;;;;864.13;93.75;;;;;;;;;;4790188;29;20127;-81
2024/01/21 08:17:21;;;;;;;828.15;90.68;;;;;;;;;;4796936;29;20835;-81
2024/01/21 08:19:49;;;;;;;856.38;92.68;;;;;;;;;;4788051;29;20147;-82
2024/01/21 08:22:15;;;;;;;904.45;98.10;;;;;;;;;;4796268;29;20866;-82
2024/01/21 08:24:42;;;;;;;836.00;91.47;;;;;;;;;;4785020;29;20044;-81
2024/01/21 08:27:10;;;;;;;835.15;91.65;;;;;;;;;;4785614;29;20547;-81
2024/01/21 08:29:39;;;;;;;878.13;95.00;;;;;;;;;;4790396;29;20148;-82
2024/01/21 08:32:07;;;;;;;1031.30;115.25;;;;;;;;;;4782168;29;20052;-82
2024/01/21 08:34:38;;;;;;;955.45;103.85;;;;;;;;;;4783532;29;20044;-90
2024/01/21 08:37:05;;;;;;;911.47;98.03;;;;;;;;;;4780823;29;20687;-82
2024/01/21 08:39:32;;;;;;;908.67;96.25;;;;;;;;;;4793080;29;20830;-81
2024/01/21 08:41:59;;;;;;;888.45;93.55;;;;;;;;;;4782562;29;21087;-82
2024/01/21 08:44:25;;;;;;;870.97;92.10;;;;;;;;;;4789402;29;20552;-82
2024/01/21 08:46:54;;;;;;;849.15;89.00;;;;;;;;;;4773445;29;21035;-82
2024/01/21 08:49:21;;;;;;;873.90;92.75;;;;;;;;;;4786719;29;20036;-82
2024/01/21 08:51:48;;;;;;;897.13;94.80;;;;;;;;;;4772201;29;20148;-81
2024/01/21 08:54:14;;;;;;;886.30;94.13;;;;;;;;;;4784771;29;20125;-81
2024/01/21 08:56:41;;;;;;;839.13;87.50;;;;;;;;;;4786935;29;20594;-79
2024/01/21 08:59:09;;;;;;;834.67;86.28;;;;;;;;;;4781202;29;21036;-80
2024/01/21 09:01:36;;;;;;;890.33;94.55;;;;;;;;;;4785008;29;20064;-81
2024/01/21 09:04:03;;;;;;;874.95;92.65;;;;;;;;;;4789084;29;20274;-81
2024/01/21 09:06:30;;;;;;;830.65;86.70;;;;;;;;;;4784995;29;21386;-81
2024/01/21 09:09:00;;;;;;;941.15;99.80;;;;;;;;;;4787137;29;20036;-82
2024/01/21 09:11:26;;;;;;;881.60;92.82;;;;;;;;;;4786575;29;20040;-80
2024/01/21 09:13:53;;;;;;;879.08;92.93;;;;;;;;;;4786581;29;20146;-80
2024/01/21 09:16:19;;;;;;;873.42;91.18;;;;;;;;;;4770637;29;20044;-83
2024/01/21 09:18:46;;;;;;;856.70;89.85;;;;;;;;;;4786153;29;21160;-83
2024/01/21 09:21:13;;;;;;;800.13;83.45;;;;;;;;;;4790506;29;20067;-83
2024/01/21 09:23:55;;;;;;;857.38;91.80;;;;;;;;;;4770975;29;20056;-80
2024/01/21 09:26:22;;;;;;;901.42;97.40;;;;;;;;;;4773116;29;20044;-81
2024/01/21 09:28:48;;;;;;;943.67;102.82;;;;;;;;;;4767818;29;20215;-81
2024/01/21 09:31:15;;;;;;;855.13;92.50;;;;;;;;;;4780699;29;20820;-82
2024/01/21 09:33:42;;;;;;;844.88;90.93;;;;;;;;;;4773335;29;20047;-82
2024/01/21 09:36:12;;;;;;;888.83;95.78;;;;;;;;;;4771057;29;20048;-82
2024/01/21 09:38:39;;;;;;;829.85;88.25;;;;;;;;;;4784337;29;20032;-81
2024/01/21 09:41:08;;;;;;;855.70;92.22;;;;;;;;;;4772860;29;20040;-82
2024/01/21 09:43:39;;;;;;;1209.50;141.35;;;;;;;;;;4766914;29;20236;-81
2024/01/21 09:46:06;;;;;;;884.03;95.40;;;;;;;;;;4764922;29;20045;-81
2024/01/21 09:48:34;;;;;;;909.60;97.80;;;;;;;;;;4778924;29;21002;-81
2024/01/21 09:51:01;;;;;;;892.67;96.05;;;;;;;;;;4775867;29;20037;-83
2024/01/21 09:53:28;;;;;;;917.03;99.13;;;;;;;;;;4772204;29;21022;-82
2024/01/21 09:55:58;;;;;;;895.25;96.30;;;;;;;;;;4791096;29;20052;-81
2024/01/21 09:58:26;;;;;;;854.25;92.55;;;;;;;;;;4781220;29;20048;-81
2024/01/21 10:00:53;;;;;;;866.97;95.90;;;;;;;;;;4719853;29;2064282;-82
2024/01/21 10:03:20;;;;;;;830.97;88.82;;;;;;;;;;4788990;29;20131;-81
2024/01/21 10:05:46;;;;;;;861.63;92.15;;;;;;;;;;4787972;29;20048;-85
2024/01/21 10:08:13;;;;;;;866.78;92.93;;;;;;;;;;4789148;29;20928;-82
2024/01/21 10:10:42;;;;;;;836.88;89.65;;;;;;;;;;4791046;29;20044;-81
2024/01/21 10:13:08;;;;;;;882.15;97.53;;;;;;;;;;4781048;29;21099;-82
2024/01/21 10:15:39;;;;;;;851.20;92.35;;;;;;;;;;4796066;29;20056;-88
2024/01/21 10:18:06;;;;;;;887.05;94.10;;;;;;;;;;4798891;29;20044;-85
2024/01/21 10:20:35;;;;;;;849.25;89.82;;;;;;;;;;4804367;29;20997;-84
2024/01/21 10:23:11;;;;;;;879.50;95.30;;;;;;;;;;4797153;29;20893;-81
2024/01/21 10:25:43;;;;;;;824.05;89.00;;;;;;;;;;4799507;29;20826;-83
2024/01/21 10:28:12;;;;;;;849.08;89.88;;;;;;;;;;4799709;29;20927;-83
2024/01/21 10:30:44;;;;;;;831.05;90.00;;;;;;;;;;4788336;29;20131;-86
2024/01/21 10:33:11;;;;;;;761.05;80.72;;;;;;;;;;4807532;29;20236;-82
2024/01/21 10:35:37;;;;;;;959.40;102.57;;;;;;;;;;4798329;29;21001;-81
2024/01/21 10:38:09;;;;;;;872.83;93.65;;;;;;;;;;4791751;29;20046;-81
2024/01/21 10:40:45;;;;;;;900.50;97.50;;;;;;;;;;4790953;29;22507;-82
2024/01/21 10:43:13;;;;;;;889.42;96.00;;;;;;;;;;4792639;29;20048;-82
2024/01/21 10:45:46;;;;;;;992.90;110.25;;;;;;;;;;4779602;29;21041;-81
2024/01/21 10:48:13;;;;;;;905.72;97.78;;;;;;;;;;4793780;29;21182;-82
2024/01/21 10:50:42;;;;;;;876.03;95.00;;;;;;;;;;4785800;29;20047;-81
2024/01/21 10:53:12;;;;;;;883.28;95.72;;;;;;;;;;4788614;29;20047;-81
2024/01/21 10:55:40;;;;;;;954.10;102.05;;;;;;;;;;4777272;29;20060;-80
2024/01/21 10:58:08;;;;;;;958.83;102.50;;;;;;;;;;4787236;29;21016;-80
2024/01/21 11:00:35;;;;;;;901.33;96.72;;;;;;;;;;4771819;29;20066;-84
2024/01/21 11:03:22;;;;;;;915.72;97.38;;;;;;;;;;4785002;29;20055;-83
2024/01/21 11:06:03;;;;;;;922.40;98.55;;;;;;;;;;4793042;29;20842;-82
2024/01/21 11:08:31;;;;;;;898.58;95.53;;;;;;;;;;4778196;29;20075;-81
2024/01/21 11:11:16;;;;;;;952.65;101.93;;;;;;;;;;4791422;29;20045;-81
2024/01/21 11:13:52;;;;;;;922.35;98.80;;;;;;;;;;4767998;29;20071;-80
2024/01/21 11:16:25;;;;;;;891.13;93.95;;;;;;;;;;4771234;29;20040;-82
2024/01/21 11:18:58;;;;;;;902.42;96.07;;;;;;;;;;4784621;29;20045;-83
2024/01/21 11:21:27;;;;;;;920.28;102.13;;;;;;;;;;4788590;29;21085;-83
2024/01/21 11:24:00;;;;;;;900.10;96.10;;;;;;;;;;4789042;29;20143;-83
2024/01/21 11:26:47;;;;;;;891.35;94.97;;;;;;;;;;4786252;29;20042;-82
2024/01/21 11:29:28;;;;;;;873.72;93.68;;;;;;;;;;4789937;29;20055;-81
2024/01/21 11:32:02;;;;;;;969.05;105.90;;;;;;;;;;4783285;29;20045;-82
2024/01/21 11:34:38;;;;;;;800.03;86.53;;;;;;;;;;4796784;29;20048;-84
2024/01/21 11:37:08;;;;;;;1102.93;122.15;;;;;;;;;;4776817;29;20283;-83
2024/01/21 11:39:35;;;;;;;953.78;101.93;;;;;;;;;;4787324;29;20889;-82
2024/01/21 11:42:03;;;;;;;998.28;109.20;;;;;;;;;;4783715;29;20978;-82
2024/01/21 11:44:30;;;;;;;888.13;95.78;;;;;;;;;;4784266;29;20040;-82
2024/01/21 11:46:57;;;;;;;987.50;107.45;;;;;;;;;;4788603;29;20048;-82
2024/01/21 11:49:24;;;;;;;943.40;104.57;;;;;;;;;;4764538;29;20140;-82
2024/01/21 11:51:52;;;;;;;882.33;95.32;;;;;;;;;;4788078;29;20147;-82
2024/01/21 11:54:20;;;;;;;1191.03;137.07;;;;;;;;;;4781763;29;20056;-82
2024/01/21 11:56:47;;;;;;;915.05;99.95;;;;;;;;;;4783924;29;20151;-83
2024/01/21 11:59:14;;;;;;;890.45;96.07;;;;;;;;;;4785974;29;20111;-83
2024/01/21 12:01:41;;;;;;;975.95;107.95;;;;;;;;;;4780069;29;20057;-82
2024/01/21 12:04:08;;;;;;;1021.45;113.15;;;;;;;;;;4785064;29;20032;-82
2024/01/21 12:06:42;;;;;;;911.83;98.50;;;;;;;;;;4775438;29;20044;-82
2024/01/21 12:09:08;;;;;;;;;;;;;;;;;;4784703;29;21298;-81
2024/01/21 12:11:35;;;;;;;1000.80;111.20;;;;;;;;;;4782256;29;20837;-81
2024/01/21 12:14:07;;;;;;;932.17;103.57;;;;;;;;;;4786273;29;20040;-81
2024/01/21 12:16:34;;;;;;;926.83;102.20;;;;;;;;;;4784547;29;20157;-83
2024/01/21 12:19:01;;;;;;;982.50;108.15;;;;;;;;;;4779373;29;20614;-83
2024/01/21 12:21:29;;;;;;;938.97;103.85;;;;;;;;;;4787892;29;20835;-83
2024/01/21 12:23:56;;;;;;;935.30;105.43;;;;;;;;;;4785737;29;20939;-83
2024/01/21 12:26:24;;;;;;;909.67;100.22;;;;;;;;;;4782446;29;20247;-83
2024/01/21 12:29:04;;;;;;;928.78;101.35;;;;;;;;;;4785698;29;20036;-81
2024/01/21 12:31:32;;;;;;;936.28;105.30;;;;;;;;;;4782107;29;20055;-84
2024/01/21 12:34:03;;;;;;;867.42;94.95;;;;;;;;;;4788473;29;20041;-83
2024/01/21 12:36:33;;;;;;;897.50;100.65;;;;;;;;;;4764058;29;20304;-84
2024/01/21 12:39:00;;;;;;;1028.25;116.13;;;;;;;;;;4785904;29;20040;-84
2024/01/21 12:41:27;;;;;;;1005.85;114.68;;;;;;;;;;4779675;29;20053;-83
2024/01/21 12:43:53;;;;;;;870.58;97.97;;;;;;;;;;4787260;29;20032;-83
2024/01/21 12:46:20;;;;;;;997.38;115.47;;;;;;;;;;4781566;29;20930;-81
2024/01/21 12:48:47;;;;;;;917.63;102.30;;;;;;;;;;4784525;29;20064;-81
2024/01/21 12:51:17;;;;;;;874.42;98.35;;;;;;;;;;4783361;29;21031;-81
2024/01/21 12:53:49;;;;;;;878.20;101.05;;;;;;;;;;4782071;29;20036;-84
2024/01/21 12:56:16;;;;;;;1025.68;116.45;;;;;;;;;;4783557;29;20521;-83
2024/01/21 12:58:43;;;;;;;885.33;99.90;;;;;;;;;;4779337;29;21025;-84
2024/01/21 13:01:10;;;;;;;952.45;110.03;;;;;;;;;;4782455;29;21372;-84
2024/01/21 13:03:37;;;;;;;1033.57;119.13;;;;;;;;;;4783274;29;21201;-83
2024/01/21 13:06:05;;;;;;;1033.03;118.38;;;;;;;;;;4776329;29;20048;-82
2024/01/21 13:08:33;;;;;;;898.83;101.32;;;;;;;;;;4789327;29;20114;-82
2024/01/21 13:11:01;;;;;;;941.33;106.35;;;;;;;;;;4782005;29;20071;-82
2024/01/21 13:13:30;;;;;;;910.90;102.85;;;;;;;;;;4766692;29;20537;-83
2024/01/21 13:15:58;;;;;;;919.17;105.22;;;;;;;;;;4783782;29;20048;-85
2024/01/21 13:18:27;;;;;;;918.80;103.75;;;;;;;;;;4783998;29;20067;-83
2024/01/21 13:20:53;;;;;;;913.30;102.72;;;;;;;;;;4772266;29;20051;-82
2024/01/21 13:23:20;;;;;;;887.88;102.13;;;;;;;;;;4782042;29;20075;-84
2024/01/21 13:25:46;;;;;;;901.45;101.65;;;;;;;;;;4783583;29;20036;-81
2024/01/21 13:30:51;;;;;;;910.30;103.95;;;;;;;;;;4783571;29;20927;-84
2024/01/21 13:33:18;;;;;;;921.83;104.78;;;;;;;;;;4777856;29;20048;-83
2024/01/21 13:35:46;;;;;;;910.85;101.82;;;;;;;;;;4780520;29;20104;-83
2024/01/21 13:38:34;;;;;;;992.72;114.22;;;;;;;;;;4782151;29;20152;-84
2024/01/21 13:41:02;;;;;;;969.72;110.50;;;;;;;;;;4779858;29;20040;-84
2024/01/21 13:43:29;;;;;;;982.00;112.65;;;;;;;;;;4786338;29;21209;-84
2024/01/21 13:45:56;;;;;;;899.28;100.50;;;;;;;;;;4781418;29;20045;-82
2024/01/21 13:48:23;;;;;;;904.90;103.50;;;;;;;;;;4783300;29;20029;-82
2024/01/21 13:50:50;;;;;;;959.90;109.35;;;;;;;;;;4779124;29;20086;-83
2024/01/21 13:53:17;;;;;;;876.55;98.90;;;;;;;;;;4779358;29;20044;-82
2024/01/21 13:55:45;;;;;;;928.90;105.40;;;;;;;;;;4780969;29;20045;-83
2024/01/21 13:58:16;;;;;;;955.38;110.68;;;;;;;;;;4777040;29;20032;-82
2024/01/21 14:00:43;;;;;;;912.28;102.43;;;;;;;;;;4769449;29;21168;-82
2024/01/21 14:03:11;;;;;;;908.67;102.88;;;;;;;;;;4762061;29;20040;-83
2024/01/21 14:05:38;;;;;;;1000.42;114.13;;;;;;;;;;4782256;29;20055;-82
2024/01/21 14:08:06;;;;;;;976.28;110.93;;;;;;;;;;4778800;29;20226;-83
2024/01/21 14:10:32;;;;;;;904.85;101.28;;;;;;;;;;4780397;29;20982;-82